createdAt,value
2022-08-02T00:00:55.534Z,16.20
2022-08-02T00:03:23.822Z,16.20
2022-08-02T00:05:53.073Z,16.20
2022-08-02T00:08:21.336Z,16.20
2022-08-02T00:10:48.385Z,16.10
2022-08-02T00:13:22.782Z,16.10
2022-08-02T00:15:49.918Z,16.00
2022-08-02T00:18:16.908Z,16.00
2022-08-02T00:20:43.833Z,16.00
2022-08-02T00:23:10.764Z,15.90
2022-08-02T00:25:55.203Z,15.80
2022-08-02T00:28:27.270Z,15.80
2022-08-02T00:30:55.359Z,15.80
2022-08-02T00:34:26.938Z,15.70
2022-08-02T00:36:09.298Z,15.70
2022-08-02T00:38:36.214Z,15.70
2022-08-02T00:41:03.169Z,15.70
2022-08-02T00:43:30.188Z,15.70
2022-08-02T00:46:02.547Z,15.70
2022-08-02T00:48:30.874Z,15.70
2022-08-02T00:50:59.325Z,15.70
2022-08-02T00:53:26.360Z,15.70
2022-08-02T00:55:53.386Z,15.70
2022-08-02T00:58:20.653Z,15.70
2022-08-02T01:00:47.892Z,15.80
2022-08-02T01:03:14.804Z,15.80
2022-08-02T01:06:10.051Z,15.80
2022-08-02T01:08:29.582Z,15.80
2022-08-02T01:10:58.988Z,15.80
2022-08-02T01:13:26.414Z,15.80
2022-08-02T01:15:58.255Z,15.80
2022-08-02T01:18:28.744Z,15.80
2022-08-02T01:21:09.867Z,15.80
2022-08-02T01:23:39.675Z,15.70
2022-08-02T01:26:29.326Z,15.70
2022-08-02T01:29:04.221Z,15.60
2022-08-02T01:31:33.183Z,15.60
2022-08-02T01:34:06.306Z,15.50
2022-08-02T01:36:36.705Z,15.40
2022-08-02T01:39:05.514Z,15.30
2022-08-02T01:41:33.708Z,15.30
2022-08-02T01:44:01.242Z,15.20
2022-08-02T01:46:29.366Z,15.10
2022-08-02T01:48:58.255Z,15.00
2022-08-02T01:52:05.535Z,14.90
2022-08-02T01:54:33.092Z,14.80
2022-08-02T01:57:01.423Z,14.80
2022-08-02T01:59:30.112Z,14.80
2022-08-02T02:01:57.735Z,14.70
2022-08-02T02:04:25.252Z,14.60
2022-08-02T02:06:52.937Z,14.50
2022-08-02T02:09:20.463Z,14.40
2022-08-02T02:12:06.355Z,14.30
2022-08-02T02:14:37.030Z,14.20
2022-08-02T02:17:04.801Z,14.20
2022-08-02T02:19:33.506Z,14.10
2022-08-02T02:22:00.497Z,14.00
2022-08-02T02:24:29.297Z,14.00
2022-08-02T02:26:56.934Z,13.90
2022-08-02T02:29:25.649Z,13.90
2022-08-02T02:31:53.690Z,13.90
2022-08-02T02:34:39.850Z,13.90
2022-08-02T02:37:11.718Z,13.90
2022-08-02T02:39:39.114Z,13.90
2022-08-02T02:42:08.850Z,13.90
2022-08-02T02:44:36.683Z,13.90
2022-08-02T02:47:03.831Z,13.90
2022-08-02T02:49:33.313Z,13.90
2022-08-02T02:52:01.071Z,14.00
2022-08-02T02:54:34.109Z,14.00
2022-08-02T02:57:02.326Z,14.00
2022-08-02T02:59:29.552Z,14.10
2022-08-02T03:01:58.096Z,14.10
2022-08-02T03:04:27.226Z,14.20
2022-08-02T03:07:02.932Z,14.50
2022-08-02T03:09:29.947Z,14.70
2022-08-02T03:11:57.194Z,14.70
2022-08-02T03:14:24.756Z,14.60
2022-08-02T03:16:52.671Z,14.50
2022-08-02T03:19:20.553Z,14.50
2022-08-02T03:21:48.235Z,14.40
2022-08-02T03:24:28.017Z,14.40
2022-08-02T03:26:55.889Z,14.50
2022-08-02T03:29:22.840Z,14.90
2022-08-02T03:31:50.147Z,15.50
2022-08-02T03:34:17.347Z,16.20
2022-08-02T03:36:48.242Z,17.10
2022-08-02T03:39:16.087Z,18.10
2022-08-02T03:41:43.412Z,19.10
2022-08-02T03:44:10.916Z,20.10
2022-08-02T03:46:39.801Z,21.10
2022-08-02T03:49:10.908Z,21.90
2022-08-02T03:51:37.964Z,22.50
2022-08-02T03:54:05.002Z,22.80
2022-08-02T03:56:32.165Z,23.30
2022-08-02T03:59:12.439Z,23.60
2022-08-02T04:01:39.479Z,23.90
2022-08-02T04:04:06.901Z,24.10
2022-08-02T04:06:34.038Z,24.30
2022-08-02T04:09:01.569Z,24.30
2022-08-02T04:11:31.312Z,24.30
2022-08-02T04:14:02.127Z,24.30
2022-08-02T04:16:41.445Z,24.30
2022-08-02T04:19:10.323Z,24.20
2022-08-02T04:21:49.998Z,24.00
2022-08-02T04:24:32.248Z,23.80
2022-08-02T04:27:06.584Z,23.80
2022-08-02T04:29:47.986Z,23.80
2022-08-02T04:32:15.522Z,23.80
2022-08-02T04:34:47.456Z,23.80
2022-08-02T04:37:21.551Z,23.90
2022-08-02T04:39:48.483Z,24.00
2022-08-02T04:42:22.282Z,24.20
2022-08-02T04:44:49.392Z,24.20
2022-08-02T04:47:16.320Z,24.30
2022-08-02T04:49:43.262Z,24.40
2022-08-02T04:52:10.466Z,24.60
2022-08-02T04:54:37.974Z,24.70
2022-08-02T04:57:25.300Z,24.80
2022-08-02T04:59:54.649Z,25.00
2022-08-02T05:02:21.623Z,25.00
2022-08-02T05:04:48.542Z,25.20
2022-08-02T05:07:15.471Z,25.30
2022-08-02T05:09:42.306Z,25.40
2022-08-02T05:12:09.748Z,25.40
2022-08-02T05:14:36.750Z,25.50
2022-08-02T05:17:03.896Z,25.50
2022-08-02T05:19:30.748Z,25.80
2022-08-02T05:21:57.636Z,26.00
2022-08-02T05:24:24.579Z,26.00
2022-08-02T05:26:51.475Z,26.00
2022-08-02T05:29:18.397Z,26.10
2022-08-02T05:31:46.161Z,26.00
2022-08-02T05:34:13.055Z,25.80
2022-08-02T05:36:39.955Z,25.60
2022-08-02T05:39:11.621Z,25.60
2022-08-02T05:41:45.465Z,25.90
2022-08-02T05:44:12.453Z,26.20
2022-08-02T05:46:39.311Z,26.60
2022-08-02T05:49:06.244Z,26.90
2022-08-02T05:51:37.467Z,27.30
2022-08-02T05:54:07.302Z,27.40
2022-08-02T05:56:38.845Z,27.70
2022-08-02T05:59:05.746Z,27.50
2022-08-02T06:01:38.261Z,27.60
2022-08-02T06:04:09.387Z,27.70
2022-08-02T06:06:37.416Z,27.60
2022-08-02T06:09:07.971Z,27.60
2022-08-02T06:11:39.403Z,27.50
2022-08-02T06:14:07.154Z,27.40
2022-08-02T06:16:37.625Z,27.50
2022-08-02T06:19:09.268Z,27.50
2022-08-02T06:22:35.872Z,27.10
2022-08-02T06:24:24.133Z,26.80
2022-08-02T06:26:55.185Z,26.70
2022-08-02T06:29:23.460Z,26.60
2022-08-02T06:31:52.904Z,26.60
2022-08-02T06:34:19.828Z,26.50
2022-08-02T06:36:52.413Z,26.40
2022-08-02T06:39:31.158Z,26.50
2022-08-02T06:41:59.889Z,26.50
2022-08-02T06:44:49.726Z,26.50
2022-08-02T06:47:14.026Z,26.50
2022-08-02T06:49:51.574Z,26.50
2022-08-02T06:52:30.111Z,26.50
2022-08-02T06:54:58.734Z,26.30
2022-08-02T06:57:25.785Z,26.20
2022-08-02T06:59:53.009Z,26.00
2022-08-02T07:02:19.959Z,26.00
2022-08-02T07:04:46.939Z,26.20
2022-08-02T07:07:13.942Z,26.50
2022-08-02T07:09:56.620Z,26.70
2022-08-02T07:12:28.740Z,26.80
2022-08-02T07:14:55.616Z,27.00
2022-08-02T07:17:22.501Z,27.00
2022-08-02T07:19:49.387Z,26.90
2022-08-02T07:22:18.750Z,26.70
2022-08-02T07:24:45.590Z,26.80
2022-08-02T07:27:13.137Z,27.00
2022-08-02T07:29:46.741Z,27.30
2022-08-02T07:32:18.325Z,27.50
2022-08-02T07:34:51.016Z,27.50
2022-08-02T07:37:35.711Z,27.40
2022-08-02T07:40:14.768Z,27.40
2022-08-02T07:42:47.349Z,27.20
2022-08-02T07:45:14.474Z,26.60
2022-08-02T07:47:41.790Z,26.10
2022-08-02T07:50:10.029Z,25.90
2022-08-02T07:52:37.040Z,25.90
2022-08-02T07:55:04.877Z,25.50
2022-08-02T07:57:31.741Z,25.30
2022-08-02T07:59:58.750Z,25.50
2022-08-02T08:02:25.607Z,25.80
2022-08-02T08:04:52.755Z,26.10
2022-08-02T08:07:20.447Z,26.40
2022-08-02T08:09:48.292Z,26.70
2022-08-02T08:12:16.659Z,26.80
2022-08-02T08:14:44.078Z,27.10
2022-08-02T08:17:11.287Z,26.90
2022-08-02T08:19:51.267Z,26.30
2022-08-02T08:22:21.930Z,25.90
2022-08-02T08:24:49.254Z,25.30
2022-08-02T08:27:16.710Z,24.60
2022-08-02T08:29:43.676Z,24.40
2022-08-02T08:32:16.342Z,24.50
2022-08-02T08:34:45.585Z,24.90
2022-08-02T08:37:18.224Z,25.30
2022-08-02T08:39:57.578Z,25.50
2022-08-02T08:42:28.346Z,25.70
2022-08-02T08:44:57.170Z,25.80
2022-08-02T08:47:27.476Z,25.50
2022-08-02T08:50:03.166Z,25.30
2022-08-02T08:52:32.528Z,25.00
2022-08-02T08:54:59.458Z,25.00
2022-08-02T08:57:28.605Z,25.00
2022-08-02T08:59:55.470Z,25.00
2022-08-02T09:02:26.156Z,25.10
2022-08-02T09:04:55.554Z,25.20
2022-08-02T09:07:25.451Z,25.40
2022-08-02T09:09:52.386Z,25.40
2022-08-02T09:12:21.838Z,25.40
2022-08-02T09:14:50.358Z,25.40
2022-08-02T09:17:18.428Z,25.40
2022-08-02T09:19:45.694Z,25.30
2022-08-02T09:22:14.810Z,25.30
2022-08-02T09:24:43.864Z,25.40
2022-08-02T09:27:21.503Z,25.40
2022-08-02T09:32:50.096Z,25.70
2022-08-02T09:36:07.355Z,25.70
2022-08-02T09:38:23.347Z,25.70
2022-08-02T09:40:52.906Z,25.70
2022-08-02T09:43:20.892Z,25.50
2022-08-02T09:45:47.995Z,25.50
2022-08-02T09:48:14.880Z,25.50
2022-08-02T09:50:42.843Z,25.40
2022-08-02T09:53:14.088Z,25.20
2022-08-02T09:55:41.617Z,25.00
2022-08-02T09:58:18.787Z,25.00
2022-08-02T10:00:53.098Z,24.90
2022-08-02T10:03:22.655Z,24.80
2022-08-02T10:05:56.361Z,24.70
2022-08-02T10:08:29.366Z,24.70
2022-08-02T10:11:03.474Z,24.70
2022-08-02T10:13:34.883Z,24.70
2022-08-02T10:16:02.851Z,24.80
2022-08-02T10:18:38.950Z,24.90
2022-08-02T10:21:10.387Z,24.90
2022-08-02T10:23:39.388Z,24.90
2022-08-02T10:26:07.788Z,25.00
2022-08-02T10:28:34.798Z,25.00
2022-08-02T10:31:04.943Z,24.90
2022-08-02T10:33:33.270Z,24.80
2022-08-02T10:36:07.060Z,24.90
2022-08-02T10:38:35.681Z,25.00
2022-08-02T10:41:02.858Z,25.00
2022-08-02T10:43:32.584Z,25.10
2022-08-02T10:46:17.869Z,25.10
2022-08-02T10:49:18.418Z,25.20
2022-08-02T10:51:55.059Z,25.10
2022-08-02T10:54:22.722Z,24.90
2022-08-02T10:56:50.887Z,24.90
2022-08-02T10:59:27.943Z,25.10
2022-08-02T11:02:02.211Z,25.20
2022-08-02T11:04:29.082Z,25.10
2022-08-02T11:07:09.146Z,24.90
2022-08-02T11:09:36.223Z,24.80
2022-08-02T11:12:05.394Z,24.80
2022-08-02T11:14:33.100Z,24.80
2022-08-02T11:17:02.793Z,24.80
2022-08-02T11:19:29.662Z,25.00
2022-08-02T11:22:04.354Z,25.20
2022-08-02T11:24:34.959Z,25.30
2022-08-02T11:27:02.909Z,25.60
2022-08-02T11:29:40.383Z,25.70
2022-08-02T11:32:07.998Z,25.80
2022-08-02T11:34:37.289Z,25.70
2022-08-02T11:37:05.099Z,25.80
2022-08-02T11:39:32.054Z,25.80
2022-08-02T11:42:00.164Z,25.90
2022-08-02T11:44:27.792Z,26.00
2022-08-02T11:46:59.155Z,26.20
2022-08-02T11:49:26.738Z,26.40
2022-08-02T11:52:00.499Z,26.50
2022-08-02T11:54:31.328Z,26.60
2022-08-02T11:57:19.219Z,26.50
2022-08-02T11:59:47.923Z,26.40
2022-08-02T12:02:15.674Z,26.20
2022-08-02T12:04:42.874Z,26.10
2022-08-02T12:07:11.130Z,26.20
2022-08-02T12:09:41.089Z,26.30
2022-08-02T12:12:08.336Z,26.40
2022-08-02T12:14:43.207Z,26.40
2022-08-02T12:17:28.636Z,26.30
2022-08-02T12:19:55.565Z,26.20
2022-08-02T12:22:27.475Z,26.10
2022-08-02T12:24:56.314Z,26.00
2022-08-02T12:27:29.403Z,26.10
2022-08-02T12:30:00.649Z,26.20
2022-08-02T12:32:27.658Z,26.20
2022-08-02T12:35:04.047Z,26.20
2022-08-02T12:37:31.353Z,26.30
2022-08-02T12:39:58.260Z,26.40
2022-08-02T12:42:25.177Z,26.30
2022-08-02T12:44:56.187Z,26.10
2022-08-02T12:47:23.111Z,26.00
2022-08-02T12:50:08.647Z,26.10
2022-08-02T12:52:35.589Z,26.40
2022-08-02T12:55:14.810Z,26.70
2022-08-02T12:57:51.915Z,26.90
2022-08-02T13:00:25.764Z,27.00
2022-08-02T13:02:52.936Z,27.00
2022-08-02T13:05:20.003Z,27.00
2022-08-02T13:07:47.037Z,27.10
2022-08-02T13:10:14.845Z,27.20
2022-08-02T13:12:41.750Z,27.30
2022-08-02T13:15:12.488Z,27.40
2022-08-02T13:17:56.198Z,27.40
2022-08-02T13:20:23.154Z,27.30
2022-08-02T13:22:53.443Z,27.00
2022-08-02T13:25:23.322Z,26.70
2022-08-02T13:27:50.699Z,26.40
2022-08-02T13:30:17.624Z,25.90
2022-08-02T13:32:44.779Z,25.70
2022-08-02T13:35:17.865Z,25.70
2022-08-02T13:37:45.626Z,25.70
2022-08-02T13:40:21.576Z,25.70
2022-08-02T13:42:49.357Z,25.70
2022-08-02T13:45:16.269Z,25.60
2022-08-02T13:47:57.517Z,25.60
2022-08-02T13:50:31.382Z,25.60
2022-08-02T13:52:58.217Z,25.40
2022-08-02T13:55:25.098Z,25.30
2022-08-02T13:57:53.632Z,25.10
2022-08-02T14:00:35.065Z,25.00
2022-08-02T14:03:03.888Z,24.90
2022-08-02T14:05:38.665Z,24.70
2022-08-02T14:08:16.579Z,24.50
2022-08-02T14:10:44.506Z,24.40
2022-08-02T14:13:11.367Z,24.20
2022-08-02T14:15:38.251Z,24.00
2022-08-02T14:18:05.191Z,24.00
2022-08-02T14:20:32.121Z,23.90
2022-08-02T14:22:59.047Z,24.00
2022-08-02T14:25:26.961Z,24.10
2022-08-02T14:27:53.893Z,24.40
2022-08-02T14:30:21.880Z,24.80
2022-08-02T14:32:48.847Z,25.10
2022-08-02T14:35:15.807Z,25.40
2022-08-02T14:37:42.783Z,25.60
2022-08-02T14:40:30.893Z,25.80
2022-08-02T14:42:56.918Z,25.80
2022-08-02T14:45:26.249Z,26.00
2022-08-02T14:48:03.869Z,26.10
2022-08-02T14:50:30.943Z,26.20
2022-08-02T14:52:57.895Z,26.10
2022-08-02T14:55:24.818Z,26.10
2022-08-02T14:57:52.019Z,26.10
2022-08-02T15:00:19.045Z,26.00
2022-08-02T15:02:46.038Z,26.10
2022-08-02T15:05:12.968Z,26.20
2022-08-02T15:07:44.223Z,26.10
2022-08-02T15:10:13.560Z,26.00
2022-08-02T15:12:40.510Z,25.90
2022-08-02T15:15:07.582Z,25.80
2022-08-02T15:17:34.494Z,25.70
2022-08-02T15:22:37.494Z,25.50
2022-08-02T15:25:04.560Z,25.50
2022-08-02T15:27:41.812Z,25.40
2022-08-02T15:30:09.227Z,25.30
2022-08-02T15:32:37.072Z,25.10
2022-08-02T15:35:04.495Z,25.00
2022-08-02T15:37:32.751Z,24.90
2022-08-02T15:40:00.076Z,25.00
2022-08-02T15:42:30.553Z,25.00
2022-08-02T15:44:58.156Z,25.00
2022-08-02T15:47:24.997Z,25.10
2022-08-02T15:49:52.763Z,25.10
2022-08-02T15:52:19.722Z,25.10
2022-08-02T15:54:46.572Z,25.00
2022-08-02T15:57:15.372Z,24.80
2022-08-02T15:59:42.257Z,24.60
2022-08-02T16:02:09.218Z,24.60
2022-08-02T16:04:36.192Z,24.50
2022-08-02T16:07:03.105Z,24.50
2022-08-02T16:09:29.981Z,24.50
2022-08-02T16:11:56.900Z,24.50
2022-08-02T16:14:23.758Z,24.30
2022-08-02T16:16:50.609Z,24.10
2022-08-02T16:19:47.774Z,24.00
2022-08-02T16:22:04.421Z,23.80
2022-08-02T16:24:31.831Z,23.70
2022-08-02T16:26:58.995Z,23.60
2022-08-02T16:29:25.945Z,23.50
2022-08-02T16:31:52.812Z,23.50
2022-08-02T16:34:19.896Z,23.50
2022-08-02T16:36:46.882Z,23.50
2022-08-02T16:39:13.751Z,23.50
2022-08-02T16:41:51.196Z,23.40
2022-08-02T16:44:29.007Z,23.40
2022-08-02T16:46:57.258Z,23.40
2022-08-02T16:50:07.064Z,23.30
2022-08-02T16:52:21.509Z,23.30
2022-08-02T16:54:49.839Z,23.30
2022-08-02T16:57:19.842Z,23.20
2022-08-02T16:59:57.433Z,23.10
2022-08-02T17:02:25.832Z,23.00
2022-08-02T17:04:52.693Z,23.00
2022-08-02T17:08:08.531Z,22.80
2022-08-02T17:10:09.012Z,22.70
2022-08-02T17:12:36.678Z,22.60
2022-08-02T17:16:01.499Z,22.40
2022-08-02T17:17:51.536Z,22.40
2022-08-02T17:20:18.842Z,22.20
2022-08-02T17:22:45.966Z,22.10
2022-08-02T17:25:16.161Z,22.00
2022-08-02T17:27:46.506Z,22.00
2022-08-02T17:30:13.739Z,21.90
2022-08-02T17:32:40.629Z,21.80
2022-08-02T17:35:15.526Z,21.70
2022-08-02T17:37:54.567Z,21.70
2022-08-02T17:40:27.241Z,21.60
2022-08-02T17:42:54.165Z,21.60
2022-08-02T17:45:25.565Z,21.60
2022-08-02T17:48:03.826Z,21.50
2022-08-02T17:50:32.518Z,21.50
2022-08-02T17:52:59.801Z,21.50
2022-08-02T17:55:27.099Z,21.50
2022-08-02T17:57:59.440Z,21.40
2022-08-02T18:00:34.482Z,21.40
2022-08-02T18:03:06.254Z,21.30
2022-08-02T18:05:39.096Z,21.20
2022-08-02T18:08:06.513Z,21.20
2022-08-02T18:10:34.215Z,21.20
2022-08-02T18:13:02.312Z,21.10
2022-08-02T18:15:32.589Z,21.10
2022-08-02T18:18:00.462Z,21.00
2022-08-02T18:20:27.349Z,21.00
2022-08-02T18:22:55.845Z,20.90
2022-08-02T18:25:36.822Z,20.80
2022-08-02T18:28:11.051Z,20.80
2022-08-02T18:30:37.976Z,20.70
2022-08-02T18:33:55.059Z,20.60
2022-08-02T18:35:55.255Z,20.50
2022-08-02T18:40:51.138Z,20.30
2022-08-02T18:43:18.788Z,20.10
2022-08-02T18:46:07.218Z,20.10
2022-08-02T18:48:39.646Z,19.90
2022-08-02T18:51:13.265Z,19.80
2022-08-02T18:53:42.345Z,19.60
2022-08-02T18:56:19.968Z,19.50
2022-08-02T18:58:51.975Z,19.40
2022-08-02T19:01:21.792Z,19.40
2022-08-02T19:03:58.851Z,19.20
2022-08-02T19:06:27.505Z,19.20
2022-08-02T19:09:05.888Z,19.10
2022-08-02T19:11:38.681Z,19.00
2022-08-02T19:14:08.164Z,19.00
2022-08-02T19:16:36.978Z,18.90
2022-08-02T19:19:05.680Z,18.80
2022-08-02T19:22:16.277Z,18.70
2022-08-02T19:24:19.412Z,18.60
2022-08-02T19:26:51.034Z,18.60
2022-08-02T19:32:40.321Z,18.50
2022-08-02T19:34:53.944Z,18.50
2022-08-02T19:37:21.480Z,18.60
2022-08-02T19:39:48.863Z,18.60
2022-08-02T19:42:17.151Z,18.60
2022-08-02T19:44:46.111Z,18.60
2022-08-02T19:47:19.030Z,18.50
2022-08-02T19:49:49.077Z,18.40
2022-08-02T19:52:21.579Z,18.40
2022-08-02T19:57:39.249Z,18.20
2022-08-02T20:00:11.273Z,18.10
2022-08-02T20:02:38.546Z,17.90
2022-08-02T20:07:56.232Z,17.80
2022-08-02T20:10:24.731Z,17.80
2022-08-02T20:12:54.148Z,17.80
2022-08-02T20:15:21.767Z,17.70
2022-08-02T20:17:49.133Z,17.60
2022-08-02T20:20:17.072Z,17.60
2022-08-02T20:25:54.441Z,17.40
2022-08-02T20:28:21.846Z,17.30
2022-08-02T20:30:49.040Z,17.20
2022-08-02T20:33:21.057Z,17.10
2022-08-02T20:35:49.989Z,17.10
2022-08-02T20:38:16.882Z,17.10
2022-08-02T20:40:45.109Z,17.00
2022-08-02T20:43:12.005Z,17.00
2022-08-02T20:45:40.603Z,17.00
2022-08-02T20:48:07.644Z,16.90
2022-08-02T20:50:51.573Z,16.90
2022-08-02T20:53:23.166Z,16.90
2022-08-02T20:55:53.645Z,16.80
2022-08-02T20:58:20.637Z,16.80
2022-08-02T21:00:56.818Z,16.80
2022-08-02T21:03:23.644Z,16.70
2022-08-02T21:05:55.621Z,16.70
2022-08-02T22:58:48.175Z,18.50
2022-08-02T22:59:05.573Z,17.50
2022-08-02T22:59:06.691Z,17.90
2022-08-02T22:59:07.583Z,18.30
